Lexington, Virginia
Current Conditions -  °F | °C
As of 4:15 PM on Sunday 23 Nov 2014 (Local Time) from KHSP Reporting Station
Drizzle Drizzle  
Wind Chill: 35°   Ceiling: 200
Heat Index: 43°   Visibility: 0mi
Dew Point: 43°   Wind: 16mph
Humidity: 100%   Direction: 140°SE
Pressure: 29.97"   Gusts: 22mph
Location:  37.79°N, 79.44°W
Report Text: KHSP 232115Z AUTO 14014G19KT M1/4SM DZ OVC002 06/06 A2997 RMK AO2 T00600060
Loading
Personal Weather Stations






























Interactive Weather Map New forecast layout! Learn more

10-Day Weather Forecast

Advertisements
Track Severe Weather on mobile